createdAt,value
2022-08-02T00:00:40.512Z,19.30
2022-08-02T00:03:10.968Z,18.40
2022-08-02T00:05:39.051Z,19.50
2022-08-02T00:08:08.153Z,20.80
2022-08-02T00:10:35.918Z,18.10
2022-08-02T00:13:03.899Z,18.80
2022-08-02T00:15:31.646Z,18.90
2022-08-02T00:17:59.386Z,17.50
2022-08-02T00:20:27.143Z,19.40
2022-08-02T00:22:54.973Z,13.60
2022-08-02T00:25:22.789Z,16.60
2022-08-02T00:27:50.543Z,18.70
2022-08-02T00:30:18.266Z,14.90
2022-08-02T00:32:45.967Z,16.30
2022-08-02T00:35:13.722Z,15.80
2022-08-02T00:37:42.064Z,18.20
2022-08-02T00:40:11.180Z,15.80
2022-08-02T00:42:40.161Z,17.30
2022-08-02T00:45:08.719Z,16.20
2022-08-02T00:47:36.617Z,14.50
2022-08-02T00:50:04.781Z,16.30
2022-08-02T00:52:32.485Z,15.70
2022-08-02T00:55:00.201Z,17.80
2022-08-02T00:57:27.965Z,15.60
2022-08-02T00:59:55.723Z,15.80
2022-08-02T01:02:23.479Z,15.70
2022-08-02T01:04:51.241Z,14.30
2022-08-02T01:07:19.072Z,15.50
2022-08-02T01:09:47.023Z,15.90
2022-08-02T01:12:15.170Z,17.10
2022-08-02T01:14:47.089Z,16.70
2022-08-02T01:17:22.354Z,15.40
2022-08-02T01:20:15.125Z,18.50
2022-08-02T01:23:09.623Z,17.30
2022-08-02T01:26:19.438Z,18.90
2022-08-02T01:28:53.674Z,17.10
2022-08-02T01:31:43.159Z,14.60
2022-08-02T01:34:30.850Z,19.00
2022-08-02T01:37:16.085Z,16.90
2022-08-02T01:39:45.894Z,16.10
2022-08-02T01:42:15.371Z,18.10
2022-08-02T01:44:44.410Z,14.80
2022-08-02T01:47:19.698Z,18.60
2022-08-02T01:49:53.071Z,15.00
2022-08-02T01:54:56.995Z,17.50
2022-08-02T01:57:27.947Z,13.40
2022-08-02T02:00:01.600Z,15.40
2022-08-02T02:02:32.447Z,17.80
2022-08-02T02:05:02.491Z,19.20
2022-08-02T02:07:33.763Z,18.60
2022-08-02T02:10:03.634Z,16.80
2022-08-02T02:12:35.009Z,17.70
2022-08-02T02:15:04.302Z,19.20
2022-08-02T02:17:52.976Z,16.30
2022-08-02T02:20:22.321Z,17.60
2022-08-02T02:22:50.434Z,19.50
2022-08-02T02:25:24.979Z,21.00
2022-08-02T02:28:30.666Z,18.90
2022-08-02T02:31:11.893Z,20.20
2022-08-02T02:34:14.984Z,16.50
2022-08-02T02:36:52.422Z,15.40
2022-08-02T02:39:27.146Z,17.90
2022-08-02T02:41:58.860Z,16.20
2022-08-02T02:44:27.118Z,18.30
2022-08-02T02:46:56.289Z,18.80
2022-08-02T02:49:26.140Z,17.40
2022-08-02T02:51:55.919Z,22.00
2022-08-02T02:54:30.144Z,23.30
2022-08-02T02:57:05.152Z,16.60
2022-08-02T02:59:34.736Z,17.70
2022-08-02T03:02:04.958Z,19.10
2022-08-02T03:04:55.471Z,19.00
2022-08-02T03:07:23.802Z,20.80
2022-08-02T03:09:54.110Z,24.70
2022-08-02T03:12:30.167Z,17.70
2022-08-02T03:15:05.544Z,14.90
2022-08-02T03:17:45.596Z,17.50
2022-08-02T03:20:15.810Z,15.80
2022-08-02T03:22:45.223Z,19.60
2022-08-02T03:25:14.867Z,19.60
2022-08-02T03:27:42.740Z,20.00
2022-08-02T03:30:13.368Z,18.50
2022-08-02T03:32:45.044Z,16.50
2022-08-02T03:35:21.296Z,16.00
2022-08-02T03:37:54.490Z,17.30
2022-08-02T03:40:23.280Z,16.70
2022-08-02T03:42:51.579Z,20.00
2022-08-02T03:45:20.227Z,16.90
2022-08-02T03:47:48.278Z,19.30
2022-08-02T03:50:16.638Z,18.20
2022-08-02T03:52:47.673Z,16.40
2022-08-02T03:55:15.498Z,18.70
2022-08-02T03:57:43.680Z,20.70
2022-08-02T04:00:18.205Z,18.70
2022-08-02T04:02:46.377Z,21.50
2022-08-02T04:05:14.992Z,19.00
2022-08-02T04:08:33.657Z,17.80
2022-08-02T04:10:31.791Z,18.40
2022-08-02T04:12:59.624Z,18.10
2022-08-02T04:15:27.357Z,18.40
2022-08-02T04:17:59.668Z,18.40
2022-08-02T04:20:33.761Z,20.60
2022-08-02T04:23:10.591Z,17.30
2022-08-02T04:25:40.487Z,18.10
2022-08-02T04:28:16.527Z,17.80
2022-08-02T04:30:47.645Z,17.00
2022-08-02T04:33:16.592Z,21.30
2022-08-02T04:35:45.043Z,17.00
2022-08-02T04:38:14.909Z,17.20
2022-08-02T04:40:51.934Z,18.20
2022-08-02T04:43:20.247Z,21.10
2022-08-02T04:45:54.591Z,21.00
2022-08-02T04:48:22.917Z,21.30
2022-08-02T04:50:51.101Z,18.00
2022-08-02T04:53:19.077Z,18.90
2022-08-02T04:55:47.095Z,22.20
2022-08-02T04:58:38.778Z,19.40
2022-08-02T05:01:02.916Z,22.00
2022-08-02T05:03:30.775Z,21.40
2022-08-02T05:06:00.687Z,18.10
2022-08-02T05:08:28.496Z,18.40
2022-08-02T05:10:56.333Z,20.70
2022-08-02T05:13:24.055Z,20.80
2022-08-02T05:15:51.799Z,23.20
2022-08-02T05:18:19.783Z,24.90
2022-08-02T05:20:47.586Z,21.10
2022-08-02T05:23:16.519Z,19.10
2022-08-02T05:25:44.263Z,22.70
2022-08-02T05:28:12.057Z,21.50
2022-08-02T05:30:40.591Z,22.30
2022-08-02T05:33:08.578Z,25.60
2022-08-02T05:35:36.461Z,23.10
2022-08-02T05:38:04.505Z,22.70
2022-08-02T05:40:32.448Z,22.50
2022-08-02T05:43:00.167Z,23.20
2022-08-02T05:45:28.348Z,21.30
2022-08-02T05:47:56.142Z,24.00
2022-08-02T05:50:24.316Z,23.00
2022-08-02T05:53:00.480Z,21.50
2022-08-02T05:55:35.194Z,20.40
2022-08-02T05:58:13.256Z,21.50
2022-08-02T06:00:42.860Z,25.30
2022-08-02T06:03:32.557Z,22.00
2022-08-02T06:06:05.952Z,21.30
2022-08-02T06:08:42.508Z,20.90
2022-08-02T06:11:21.463Z,21.00
2022-08-02T06:13:49.365Z,20.60
2022-08-02T06:16:18.040Z,20.80
2022-08-02T06:19:01.183Z,20.30
2022-08-02T06:22:32.181Z,20.80
2022-08-02T06:24:19.871Z,20.20
2022-08-02T06:26:52.743Z,20.80
2022-08-02T06:29:23.241Z,20.90
2022-08-02T06:31:53.214Z,21.60
2022-08-02T06:34:21.233Z,21.00
2022-08-02T06:37:09.019Z,19.00
2022-08-02T06:39:44.942Z,23.50
2022-08-02T06:42:15.403Z,24.20
2022-08-02T06:44:47.859Z,21.70
2022-08-02T06:47:18.091Z,23.10
2022-08-02T06:49:51.752Z,20.10
2022-08-02T06:52:27.784Z,19.00
2022-08-02T06:55:00.549Z,19.50
2022-08-02T06:57:29.780Z,21.00
2022-08-02T07:00:01.060Z,22.00
2022-08-02T07:02:30.431Z,20.80
2022-08-02T07:04:59.037Z,22.30
2022-08-02T07:07:28.124Z,22.50
2022-08-02T07:10:00.724Z,22.50
2022-08-02T07:12:30.998Z,21.20
2022-08-02T07:15:04.525Z,21.00
2022-08-02T07:17:32.798Z,23.60
2022-08-02T07:20:01.252Z,23.20
2022-08-02T07:22:29.654Z,20.70
2022-08-02T07:24:59.268Z,19.80
2022-08-02T07:27:28.338Z,18.70
2022-08-02T07:29:56.918Z,19.80
2022-08-02T07:32:29.437Z,22.50
2022-08-02T07:34:58.546Z,19.70
2022-08-02T07:37:52.851Z,19.20
2022-08-02T07:40:20.059Z,17.70
2022-08-02T07:42:57.876Z,18.80
2022-08-02T07:45:28.047Z,31.00
2022-08-02T07:47:57.088Z,18.60
2022-08-02T07:50:25.417Z,18.90
2022-08-02T07:52:57.173Z,20.30
2022-08-02T07:55:40.174Z,19.60
2022-08-02T07:58:12.707Z,23.20
2022-08-02T08:03:11.697Z,20.50
2022-08-02T08:05:39.907Z,17.80
2022-08-02T08:08:08.837Z,19.40
2022-08-02T08:10:40.664Z,19.40
2022-08-02T08:13:08.424Z,18.30
2022-08-02T08:15:36.183Z,18.40
2022-08-02T08:18:04.071Z,19.90
2022-08-02T08:20:33.260Z,19.00
2022-08-02T08:23:00.975Z,20.70
2022-08-02T08:25:28.670Z,22.50
2022-08-02T08:27:57.009Z,20.60
2022-08-02T08:30:25.068Z,20.20
2022-08-02T08:32:52.779Z,23.20
2022-08-02T08:35:20.834Z,22.60
2022-08-02T08:37:49.413Z,19.10
2022-08-02T08:40:19.313Z,19.50
2022-08-02T08:42:47.876Z,20.20
2022-08-02T08:45:16.505Z,20.20
2022-08-02T08:47:53.286Z,19.70
2022-08-02T08:50:30.812Z,19.20
2022-08-02T08:53:07.171Z,22.70
2022-08-02T08:55:36.550Z,21.90
2022-08-02T08:58:05.862Z,19.10
2022-08-02T09:00:36.644Z,19.90
2022-08-02T09:03:06.051Z,21.50
2022-08-02T09:05:38.788Z,22.70
2022-08-02T09:08:06.754Z,20.90
2022-08-02T09:10:48.471Z,23.10
2022-08-02T09:13:45.458Z,19.00
2022-08-02T09:16:14.966Z,19.00
2022-08-02T09:18:45.561Z,19.80
2022-08-02T09:21:15.858Z,20.80
2022-08-02T09:23:46.366Z,22.40
2022-08-02T09:26:17.196Z,18.90
2022-08-02T09:28:47.610Z,18.80
2022-08-02T09:31:18.427Z,20.90
2022-08-02T09:33:52.712Z,22.50
2022-08-02T09:36:21.575Z,22.40
2022-08-02T09:38:56.199Z,19.40
2022-08-02T09:41:26.382Z,17.40
2022-08-02T09:44:04.049Z,16.50
2022-08-02T09:46:39.480Z,17.10
2022-08-02T09:49:11.576Z,17.80
2022-08-02T09:51:45.345Z,18.30
2022-08-02T09:54:18.604Z,17.00
2022-08-02T09:56:51.387Z,17.40
2022-08-02T09:59:21.106Z,14.60
2022-08-02T10:01:51.100Z,17.20
2022-08-02T10:04:33.859Z,15.90
2022-08-02T10:07:04.901Z,14.70
2022-08-02T10:09:33.595Z,14.50
2022-08-02T10:12:01.838Z,16.90
2022-08-02T10:14:33.443Z,14.00
2022-08-02T10:17:01.519Z,15.20
2022-08-02T10:20:00.507Z,14.30
2022-08-02T10:22:19.845Z,15.10
2022-08-02T10:24:48.949Z,12.40
2022-08-02T10:27:21.528Z,15.30
2022-08-02T10:29:55.301Z,11.00
2022-08-02T10:32:37.664Z,13.40
2022-08-02T10:35:18.788Z,15.30
2022-08-02T10:38:01.215Z,16.00
2022-08-02T10:40:53.055Z,16.30
2022-08-02T10:43:32.999Z,16.30
2022-08-02T10:46:22.623Z,16.30
2022-08-02T10:52:07.282Z,16.90
2022-08-02T10:54:49.740Z,15.30
2022-08-02T10:57:26.887Z,17.00
2022-08-02T11:00:04.133Z,16.30
2022-08-02T11:02:39.456Z,20.20
2022-08-02T11:05:28.632Z,17.00
2022-08-02T11:08:19.541Z,17.20
2022-08-02T11:10:47.637Z,17.50
2022-08-02T11:13:17.493Z,18.20
2022-08-02T11:16:03.620Z,18.50
2022-08-02T11:19:03.671Z,17.30
2022-08-02T11:21:36.375Z,16.20
2022-08-02T11:24:29.641Z,19.80
2022-08-02T11:27:00.080Z,15.70
2022-08-02T11:29:41.147Z,19.20
2022-08-02T11:32:19.530Z,18.10
2022-08-02T11:34:52.489Z,18.80
2022-08-02T11:39:58.279Z,18.70
2022-08-02T11:42:38.051Z,17.80
2022-08-02T11:45:08.476Z,18.60
2022-08-02T11:47:51.229Z,18.80
2022-08-02T11:50:29.883Z,18.50
2022-08-02T11:52:58.442Z,19.50
2022-08-02T11:55:31.090Z,21.30
2022-08-02T11:58:06.077Z,19.00
2022-08-02T12:00:35.500Z,18.60
2022-08-02T12:03:03.359Z,21.50
2022-08-02T12:06:04.674Z,19.50
2022-08-02T12:08:25.140Z,19.50
2022-08-02T12:10:53.443Z,21.40
2022-08-02T12:13:21.308Z,20.30
2022-08-02T12:15:49.195Z,21.20
2022-08-02T12:18:40.501Z,21.10
2022-08-02T12:21:26.454Z,26.60
2022-08-02T12:24:00.509Z,23.30
2022-08-02T12:26:30.141Z,21.50
2022-08-02T12:28:59.474Z,21.20
2022-08-02T12:31:56.828Z,21.30
2022-08-02T12:34:31.372Z,19.30
2022-08-02T12:37:07.151Z,21.90
2022-08-02T12:39:42.651Z,21.00
2022-08-02T12:42:13.949Z,19.90
2022-08-02T12:45:01.295Z,19.60
2022-08-02T12:47:35.682Z,19.60
2022-08-02T12:50:16.512Z,21.90
2022-08-02T12:52:46.882Z,20.40
2022-08-02T12:55:21.171Z,22.00
2022-08-02T12:58:02.579Z,22.20
2022-08-02T13:00:37.009Z,21.10
2022-08-02T13:03:11.217Z,19.60
2022-08-02T13:05:56.878Z,23.20
2022-08-02T13:08:25.713Z,22.50
2022-08-02T13:10:53.459Z,20.70
2022-08-02T13:13:21.150Z,19.30
2022-08-02T13:15:51.163Z,21.30
2022-08-02T13:18:19.260Z,21.30
2022-08-02T13:20:46.988Z,20.10
2022-08-02T13:23:21.653Z,21.90
2022-08-02T13:25:52.543Z,21.00
2022-08-02T13:28:21.436Z,21.10
2022-08-02T13:30:50.137Z,23.60
2022-08-02T13:33:18.322Z,20.50
2022-08-02T13:35:47.294Z,23.00
2022-08-02T13:38:15.059Z,20.50
2022-08-02T13:41:05.263Z,22.10
2022-08-02T13:43:52.070Z,21.30
2022-08-02T13:46:29.399Z,24.30
2022-08-02T13:48:57.601Z,19.20
2022-08-02T13:51:25.409Z,20.00
2022-08-02T13:53:53.714Z,21.10
2022-08-02T13:56:35.460Z,21.30
2022-08-02T13:59:21.846Z,23.20
2022-08-02T14:01:53.964Z,21.10
2022-08-02T14:04:22.493Z,19.70
2022-08-02T14:06:50.731Z,21.50
2022-08-02T14:09:18.861Z,20.30
2022-08-02T14:11:47.086Z,19.90
2022-08-02T14:14:16.862Z,20.40
2022-08-02T14:16:45.696Z,22.10
2022-08-02T14:19:16.032Z,22.60
2022-08-02T14:21:46.896Z,21.20
2022-08-02T14:24:21.273Z,20.90
2022-08-02T14:26:49.317Z,21.10
2022-08-02T14:29:17.963Z,21.00
2022-08-02T14:31:45.838Z,22.30
2022-08-02T14:34:13.916Z,21.80
2022-08-02T14:36:41.737Z,20.80
2022-08-02T14:39:10.134Z,21.80
2022-08-02T14:41:58.851Z,22.40
2022-08-02T14:44:25.598Z,21.70
2022-08-02T14:46:53.376Z,22.10
2022-08-02T14:49:26.045Z,24.50
2022-08-02T14:51:55.390Z,23.20
2022-08-02T14:54:30.058Z,22.00
2022-08-02T14:57:00.319Z,23.30
2022-08-02T14:59:28.890Z,22.30
2022-08-02T15:01:57.203Z,23.20
2022-08-02T15:04:25.276Z,28.30
2022-08-02T15:06:53.624Z,23.60
2022-08-02T15:09:21.504Z,21.60
2022-08-02T15:11:49.873Z,22.00
2022-08-02T15:14:22.114Z,26.00
2022-08-02T15:16:58.042Z,23.20
2022-08-02T15:19:55.908Z,23.30
2022-08-02T15:22:19.367Z,21.10
2022-08-02T15:24:48.027Z,24.60
2022-08-02T15:27:17.021Z,24.00
2022-08-02T15:29:46.012Z,24.20
2022-08-02T15:32:17.463Z,24.50
2022-08-02T15:34:46.218Z,23.20
2022-08-02T15:37:13.918Z,32.20
2022-08-02T15:39:41.703Z,24.70
2022-08-02T15:42:10.056Z,23.80
2022-08-02T15:44:38.031Z,24.40
2022-08-02T15:47:07.061Z,21.70
2022-08-02T15:49:37.057Z,21.80
2022-08-02T15:52:11.006Z,24.10
2022-08-02T15:54:39.091Z,24.80
2022-08-02T15:57:06.909Z,24.70
2022-08-02T15:59:34.756Z,22.20
2022-08-02T16:02:03.396Z,22.70
2022-08-02T16:04:32.949Z,22.70
2022-08-02T16:07:01.512Z,25.80
2022-08-02T16:09:29.726Z,26.30
2022-08-02T16:11:57.577Z,25.10
2022-08-02T16:14:25.540Z,24.60
2022-08-02T16:16:53.670Z,23.20
2022-08-02T16:19:46.311Z,28.90
2022-08-02T16:22:11.284Z,25.90
2022-08-02T16:24:39.689Z,26.90
2022-08-02T16:27:08.561Z,24.40
2022-08-02T16:29:37.547Z,24.70
2022-08-02T16:32:06.021Z,25.30
2022-08-02T16:34:56.774Z,26.20
2022-08-02T16:37:21.991Z,24.40
2022-08-02T16:39:49.717Z,24.70
2022-08-02T16:42:25.663Z,25.00
2022-08-02T16:44:54.860Z,28.60
2022-08-02T16:47:42.760Z,25.10
2022-08-02T16:50:11.127Z,25.00
2022-08-02T16:52:39.547Z,25.20
2022-08-02T16:55:10.866Z,26.10
2022-08-02T16:57:45.401Z,25.30
2022-08-02T17:00:18.475Z,25.50
2022-08-02T17:02:47.009Z,24.10
2022-08-02T17:05:15.418Z,25.10
2022-08-02T17:08:07.424Z,23.80
2022-08-02T17:10:34.372Z,26.70
2022-08-02T17:13:11.328Z,28.90
2022-08-02T17:16:08.228Z,25.60
2022-08-02T17:18:29.830Z,27.40
2022-08-02T17:20:58.251Z,32.40
2022-08-02T17:24:03.873Z,29.40
2022-08-02T17:26:14.071Z,28.30
2022-08-02T17:29:07.005Z,31.60
2022-08-02T17:31:42.884Z,28.80
2022-08-02T17:34:12.512Z,28.10
2022-08-02T17:36:40.310Z,30.80
2022-08-02T17:39:08.039Z,30.90
2022-08-02T17:41:39.746Z,32.00
2022-08-02T17:44:37.524Z,30.00
2022-08-02T17:47:07.379Z,29.80
2022-08-02T17:49:43.939Z,28.80
2022-08-02T17:52:49.395Z,29.80
2022-08-02T17:55:02.310Z,28.00
2022-08-02T17:57:57.552Z,29.10
2022-08-02T18:00:20.185Z,31.10
2022-08-02T18:02:50.563Z,32.10
2022-08-02T18:07:53.031Z,30.00
2022-08-02T18:10:24.687Z,32.30
2022-08-02T18:12:54.382Z,37.10
2022-08-02T18:15:23.957Z,33.20
2022-08-02T18:17:51.733Z,34.00
2022-08-02T18:20:22.611Z,32.40
2022-08-02T18:22:55.600Z,33.10
2022-08-02T18:25:37.451Z,38.00
2022-08-02T18:28:11.885Z,33.10
2022-08-02T18:30:41.114Z,32.00
2022-08-02T18:33:55.766Z,37.10
2022-08-02T18:35:56.607Z,40.70
2022-08-02T18:38:27.817Z,34.70
2022-08-02T18:40:55.803Z,34.40
2022-08-02T18:43:25.293Z,34.10
2022-08-02T18:46:06.680Z,35.40
2022-08-02T18:48:46.468Z,37.30
2022-08-02T18:51:15.682Z,33.20
2022-08-02T18:53:43.540Z,33.20
2022-08-02T18:56:19.857Z,32.60
2022-08-02T18:58:55.984Z,31.10
2022-08-02T19:01:31.799Z,35.80
2022-08-02T19:04:02.688Z,32.30
2022-08-02T19:06:30.823Z,33.50
2022-08-02T19:09:05.250Z,34.50
2022-08-02T19:11:38.544Z,34.70
2022-08-02T19:14:09.298Z,36.70
2022-08-02T19:16:38.131Z,35.70
2022-08-02T19:19:06.615Z,37.40
2022-08-02T19:22:17.277Z,35.10
2022-08-02T19:24:22.867Z,37.00
2022-08-02T19:26:52.656Z,34.00
2022-08-02T19:32:42.563Z,35.90
2022-08-02T19:35:00.233Z,37.20
2022-08-02T19:37:37.008Z,37.50
2022-08-02T19:40:07.983Z,37.60
2022-08-02T19:43:13.252Z,37.60
2022-08-02T19:45:50.339Z,36.80
2022-08-02T19:48:14.903Z,37.00
2022-08-02T19:50:44.235Z,36.20
2022-08-02T19:53:18.562Z,37.40
2022-08-02T19:55:58.788Z,37.60
2022-08-02T19:58:30.842Z,36.90
2022-08-02T20:01:00.267Z,36.70
2022-08-02T20:03:51.563Z,37.30
2022-08-02T20:06:29.287Z,37.20
2022-08-02T20:08:59.362Z,36.00
2022-08-02T20:11:35.021Z,36.70
2022-08-02T20:14:07.560Z,37.40
2022-08-02T20:16:36.381Z,38.00
2022-08-02T20:19:07.772Z,36.50
2022-08-02T20:21:37.851Z,38.40
2022-08-02T20:24:10.859Z,37.80
2022-08-02T20:26:47.471Z,38.50
2022-08-02T20:29:17.440Z,40.00
2022-08-02T20:32:05.873Z,38.80
2022-08-02T20:34:36.362Z,39.60
2022-08-02T20:37:59.979Z,39.60
2022-08-02T20:39:53.755Z,38.80
2022-08-02T20:42:22.585Z,39.00
2022-08-02T20:44:55.682Z,40.30
2022-08-02T20:47:27.772Z,36.90
2022-08-02T20:50:15.398Z,39.30
2022-08-02T20:52:44.997Z,38.30
2022-08-02T20:55:16.906Z,36.30
2022-08-02T20:57:49.081Z,37.30
2022-08-02T21:02:56.664Z,38.20
2022-08-02T21:05:27.014Z,36.70
2022-08-02T21:08:14.738Z,34.90
2022-08-02T21:10:50.607Z,39.10
2022-08-02T21:13:22.915Z,34.10
2022-08-02T21:15:53.449Z,37.10
2022-08-02T21:18:28.855Z,32.80
2022-08-02T21:21:09.600Z,35.10
2022-08-02T21:23:38.487Z,37.50
2022-08-02T21:26:28.543Z,33.80
2022-08-02T21:29:03.816Z,35.80
2022-08-02T21:31:33.445Z,34.50
2022-08-02T21:34:26.575Z,34.00
2022-08-02T21:36:53.383Z,36.40
2022-08-02T21:39:21.167Z,34.20
2022-08-02T21:41:49.512Z,32.70
2022-08-02T21:44:20.011Z,33.20
2022-08-02T21:46:50.242Z,31.30
2022-08-02T21:49:20.214Z,31.20
2022-08-02T21:51:50.242Z,30.70
2022-08-02T21:54:20.821Z,31.90
2022-08-02T21:56:53.389Z,29.70
2022-08-02T21:59:26.045Z,31.30
2022-08-02T22:04:26.970Z,32.20
2022-08-02T22:06:55.645Z,29.80
2022-08-02T22:09:43.122Z,31.80
2022-08-02T22:12:18.359Z,32.70
2022-08-02T22:14:53.957Z,34.60
2022-08-02T22:17:51.271Z,33.90
2022-08-02T22:20:20.101Z,33.90
2022-08-02T22:22:50.415Z,31.20
2022-08-02T22:25:26.844Z,34.50
2022-08-02T22:28:37.714Z,35.00
2022-08-02T22:30:54.708Z,33.50
2022-08-02T22:33:42.214Z,38.20
2022-08-02T22:36:11.461Z,38.10
2022-08-02T22:38:44.358Z,36.40
2022-08-02T22:41:13.844Z,53.50
2022-08-02T22:43:42.617Z,49.40
2022-08-02T22:46:15.654Z,42.70
2022-08-02T22:48:45.656Z,39.00
2022-08-02T22:51:14.034Z,40.80
2022-08-02T22:53:42.661Z,39.50
2022-08-02T22:56:11.491Z,37.70
2022-08-02T22:58:48.175Z,36.60
2022-08-02T22:59:11.540Z,39.60
2022-08-02T23:01:27.224Z,38.20
2022-08-02T23:03:55.000Z,38.40
2022-08-02T23:06:23.048Z,43.50
2022-08-02T23:08:50.858Z,33.70
2022-08-02T23:11:18.700Z,36.20
2022-08-02T23:13:46.510Z,37.00
2022-08-02T23:16:37.706Z,33.50
2022-08-02T23:19:24.271Z,35.20
2022-08-02T23:22:02.435Z,37.30
2022-08-02T23:24:33.522Z,35.80
2022-08-02T23:27:01.587Z,35.70
2022-08-02T23:29:29.452Z,33.10
2022-08-02T23:31:57.278Z,33.50
2022-08-02T23:34:26.903Z,34.90
2022-08-02T23:36:54.592Z,34.40
2022-08-02T23:39:23.638Z,34.10
2022-08-02T23:41:55.106Z,36.70
2022-08-02T23:44:24.777Z,36.50
2022-08-02T23:46:53.609Z,38.50
2022-08-02T23:49:22.611Z,34.60
2022-08-02T23:51:51.563Z,36.80
2022-08-02T23:54:20.366Z,39.20
2022-08-02T23:56:48.162Z,37.50
2022-08-02T23:59:16.504Z,41.60
